createdAt,value
2019-04-30T00:02:35.846Z,82.50
2019-04-30T00:07:50.876Z,82.70
2019-04-30T00:13:10.460Z,83.10
2019-04-30T00:18:25.629Z,83.30
2019-04-30T00:23:41.488Z,83.60
2019-04-30T00:28:57.338Z,84.00
2019-04-30T00:34:15.164Z,84.20
2019-04-30T00:39:31.466Z,84.40
2019-04-30T00:44:47.353Z,84.60
2019-04-30T00:50:04.956Z,85.20
2019-04-30T00:55:21.207Z,85.50
2019-04-30T01:00:45.495Z,85.80
2019-04-30T01:06:01.644Z,86.00
2019-04-30T01:11:17.867Z,86.40
2019-04-30T01:16:33.475Z,86.70
2019-04-30T01:21:50.792Z,87.00
2019-04-30T01:27:10.309Z,87.30
2019-04-30T01:32:24.105Z,87.70
2019-04-30T01:37:41.161Z,88.10
2019-04-30T01:42:57.041Z,88.50
2019-04-30T01:48:13.182Z,88.60
2019-04-30T01:53:29.085Z,88.80
2019-04-30T01:58:57.132Z,89.30
2019-04-30T02:04:13.234Z,89.60
2019-04-30T02:09:29.088Z,90.00
2019-04-30T02:14:46.092Z,90.20
2019-04-30T02:20:02.908Z,90.40
2019-04-30T02:25:19.948Z,90.60
2019-04-30T02:30:40.217Z,90.70
2019-04-30T02:36:19.983Z,90.80
2019-04-30T02:41:40.882Z,91.00
2019-04-30T02:47:00.280Z,91.20
2019-04-30T02:52:19.569Z,91.50
2019-04-30T02:57:39.532Z,91.60
2019-04-30T03:02:55.095Z,91.70
2019-04-30T03:08:29.917Z,92.00
2019-04-30T03:13:46.364Z,92.40
2019-04-30T03:19:32.337Z,92.30
2019-04-30T03:24:59.792Z,92.60
2019-04-30T03:30:21.313Z,92.80
2019-04-30T03:35:34.820Z,92.90
2019-04-30T03:40:52.704Z,93.00
2019-04-30T03:46:10.161Z,93.20
2019-04-30T03:51:30.431Z,93.30
2019-04-30T03:56:49.871Z,93.50
2019-04-30T04:02:30.185Z,93.80
2019-04-30T04:07:54.335Z,93.90
2019-04-30T04:13:12.139Z,94.20
2019-04-30T04:18:30.214Z,94.60
2019-04-30T04:23:54.875Z,95.00
2019-04-30T04:29:22.502Z,94.80
2019-04-30T04:34:40.059Z,94.90
2019-04-30T04:39:56.219Z,95.00
2019-04-30T04:45:12.555Z,95.20
2019-04-30T04:50:30.239Z,95.50
2019-04-30T04:55:46.734Z,95.80
2019-04-30T05:01:02.687Z,96.10
2019-04-30T05:06:21.820Z,96.20
2019-04-30T05:11:39.445Z,96.50
2019-04-30T05:16:55.067Z,96.50
2019-04-30T05:22:11.151Z,96.70
2019-04-30T05:27:27.204Z,97.10
2019-04-30T05:32:43.013Z,97.30
2019-04-30T05:37:59.294Z,97.40
2019-04-30T05:43:15.110Z,97.50
2019-04-30T05:48:31.057Z,98.00
2019-04-30T05:53:46.985Z,98.00
2019-04-30T05:59:03.411Z,98.00
2019-04-30T06:04:19.433Z,98.10
2019-04-30T06:09:50.234Z,98.30
2019-04-30T06:15:30.915Z,98.30
2019-04-30T06:20:48.674Z,98.80
2019-04-30T06:26:09.624Z,99.10
2019-04-30T06:31:32.286Z,99.30
2019-04-30T06:36:51.054Z,99.70
2019-04-30T06:42:06.447Z,99.90
2019-04-30T06:47:20.056Z,99.80
2019-04-30T06:52:35.466Z,99.90
2019-04-30T06:57:51.561Z,99.90
2019-04-30T07:03:09.584Z,99.90
2019-04-30T07:08:42.787Z,99.90
2019-04-30T07:14:00.034Z,99.90
2019-04-30T07:19:29.124Z,99.90
2019-04-30T07:24:33.358Z,99.90
2019-04-30T07:29:49.588Z,99.90
2019-04-30T07:35:05.434Z,99.90
2019-04-30T07:40:21.505Z,99.90
2019-04-30T07:45:39.239Z,99.90
2019-04-30T07:50:55.472Z,99.90
2019-04-30T07:56:24.137Z,99.90
2019-04-30T08:01:29.478Z,99.90
2019-04-30T08:06:45.342Z,99.90
2019-04-30T08:12:01.231Z,99.90
2019-04-30T08:17:18.839Z,99.90
2019-04-30T08:22:34.614Z,99.90
2019-04-30T08:27:50.690Z,99.90
2019-04-30T08:33:06.471Z,99.90
2019-04-30T08:38:29.927Z,99.90
2019-04-30T08:43:45.090Z,99.90
2019-04-30T08:49:01.264Z,99.90
2019-04-30T08:54:19.462Z,99.90
2019-04-30T08:59:34.675Z,99.90
2019-04-30T09:04:54.654Z,99.90
2019-04-30T09:10:10.612Z,99.90
2019-04-30T09:15:26.770Z,99.90
2019-04-30T09:20:42.439Z,99.90
2019-04-30T09:25:58.652Z,99.90
2019-04-30T09:31:14.526Z,99.90
2019-04-30T09:36:30.211Z,99.90
2019-04-30T09:41:46.038Z,99.90
2019-04-30T09:47:01.636Z,99.90
2019-04-30T09:52:19.735Z,99.90
2019-04-30T09:57:38.890Z,99.90
2019-04-30T10:02:53.985Z,99.90
2019-04-30T10:08:09.884Z,99.90
2019-04-30T10:13:25.637Z,99.90
2019-04-30T10:18:43.066Z,99.90
2019-04-30T10:24:11.854Z,99.90
2019-04-30T10:29:18.538Z,99.90
2019-04-30T10:34:34.381Z,99.90
2019-04-30T10:39:50.287Z,99.90
2019-04-30T10:45:11.150Z,99.90
2019-04-30T10:50:28.449Z,99.90
2019-04-30T10:55:44.481Z,99.90
2019-04-30T11:01:01.994Z,99.90
2019-04-30T11:06:19.200Z,99.90
2019-04-30T11:11:34.969Z,99.90
2019-04-30T11:16:51.688Z,99.90
2019-04-30T11:22:08.377Z,99.90
2019-04-30T11:27:24.914Z,99.90
2019-04-30T11:32:40.875Z,99.90
2019-04-30T11:37:56.946Z,99.90
2019-04-30T11:43:12.987Z,99.90
2019-04-30T11:48:28.992Z,99.90
2019-04-30T11:53:44.811Z,99.90
2019-04-30T11:59:00.475Z,99.90
2019-04-30T12:04:16.328Z,99.90
2019-04-30T12:09:54.279Z,95.90
2019-04-30T12:15:10.329Z,95.10
2019-04-30T12:20:26.126Z,94.60
2019-04-30T12:25:42.064Z,94.40
2019-04-30T12:30:58.879Z,92.50
2019-04-30T12:36:14.627Z,90.80
2019-04-30T12:41:30.346Z,89.10
2019-04-30T12:46:48.527Z,88.30
2019-04-30T12:52:11.026Z,87.40
2019-04-30T12:57:36.446Z,85.40
2019-04-30T13:02:52.528Z,85.40
2019-04-30T13:08:09.704Z,81.00
2019-04-30T13:13:25.814Z,82.30
2019-04-30T13:18:41.718Z,82.30
2019-04-30T13:23:57.547Z,82.20
2019-04-30T13:29:18.492Z,80.50
2019-04-30T13:35:00.986Z,76.50
2019-04-30T13:40:38.943Z,72.90
2019-04-30T13:45:53.984Z,71.60
2019-04-30T13:51:09.858Z,72.30
2019-04-30T13:56:28.543Z,69.30
2019-04-30T14:01:44.180Z,67.50
2019-04-30T14:07:17.662Z,63.00
2019-04-30T14:12:35.963Z,63.70
2019-04-30T14:17:51.598Z,65.00
2019-04-30T14:23:08.531Z,64.90
2019-04-30T14:28:25.653Z,63.00
2019-04-30T14:33:41.306Z,64.60
2019-04-30T14:39:13.109Z,65.20
2019-04-30T14:44:19.276Z,62.50
2019-04-30T14:50:02.030Z,63.80
2019-04-30T14:55:22.068Z,64.30
2019-04-30T15:00:56.698Z,61.60
2019-04-30T15:06:13.923Z,60.00
2019-04-30T15:11:30.037Z,61.40
2019-04-30T15:16:47.527Z,60.60
2019-04-30T15:22:04.030Z,61.50
2019-04-30T15:27:20.502Z,61.80
2019-04-30T15:32:39.572Z,59.90
2019-04-30T15:37:57.234Z,59.60
2019-04-30T15:43:14.194Z,59.10
2019-04-30T15:48:30.076Z,60.50
2019-04-30T15:53:45.556Z,59.90
2019-04-30T15:59:19.147Z,59.90
2019-04-30T16:04:51.520Z,59.60
2019-04-30T16:10:19.971Z,59.20
2019-04-30T16:15:36.168Z,59.30
2019-04-30T16:20:53.531Z,59.50
2019-04-30T16:26:11.102Z,60.00
2019-04-30T16:31:29.021Z,59.30
2019-04-30T16:36:46.192Z,59.30
2019-04-30T16:42:02.081Z,59.40
2019-04-30T16:47:19.896Z,59.90
2019-04-30T16:52:39.506Z,59.90
2019-04-30T16:57:55.604Z,58.30
2019-04-30T17:03:19.185Z,58.70
2019-04-30T17:08:46.158Z,58.70
2019-04-30T17:14:05.155Z,58.70
2019-04-30T17:19:33.462Z,57.20
2019-04-30T17:24:50.998Z,57.60
2019-04-30T17:30:09.323Z,58.00
2019-04-30T17:35:25.128Z,57.70
2019-04-30T17:40:40.969Z,58.30
2019-04-30T17:45:58.519Z,58.40
2019-04-30T17:51:14.454Z,59.50
2019-04-30T18:01:53.350Z,59.00
2019-04-30T18:07:10.017Z,59.40
2019-04-30T18:12:26.330Z,59.70
2019-04-30T18:17:44.076Z,59.80
2019-04-30T18:23:37.181Z,59.90
2019-04-30T18:28:52.971Z,60.80
2019-04-30T18:34:09.444Z,60.40
2019-04-30T18:39:29.011Z,60.40
2019-04-30T18:44:44.917Z,61.30
2019-04-30T18:50:01.141Z,60.60
2019-04-30T18:55:16.802Z,60.60
2019-04-30T19:00:40.442Z,60.70
2019-04-30T19:06:00.743Z,60.70
2019-04-30T19:11:35.362Z,60.80
2019-04-30T19:17:09.617Z,60.70
2019-04-30T19:22:25.733Z,60.80
2019-04-30T19:27:41.735Z,60.90
2019-04-30T19:33:17.169Z,60.80
2019-04-30T19:38:33.637Z,60.90
2019-04-30T19:43:50.174Z,61.00
2019-04-30T19:49:05.957Z,61.00
2019-04-30T19:54:22.141Z,61.10
2019-04-30T19:59:38.254Z,60.90
2019-04-30T20:04:59.052Z,61.10
2019-04-30T20:10:15.149Z,61.10
2019-04-30T20:15:30.868Z,61.10
2019-04-30T20:20:51.632Z,61.10
2019-04-30T20:26:06.593Z,61.20
2019-04-30T20:31:22.873Z,61.10
2019-04-30T20:36:38.996Z,61.20
2019-04-30T20:41:58.325Z,61.10
2019-04-30T20:47:25.292Z,61.10
2019-04-30T20:52:40.980Z,61.20
2019-04-30T20:57:56.531Z,61.20
2019-04-30T21:03:12.275Z,61.20
2019-04-30T21:08:28.193Z,61.40
2019-04-30T21:13:44.022Z,61.40
2019-04-30T21:18:59.920Z,61.40
2019-04-30T21:24:16.044Z,61.40
2019-04-30T21:29:31.625Z,61.50
2019-04-30T21:35:03.936Z,61.50
2019-04-30T21:40:20.213Z,61.50
2019-04-30T21:45:35.971Z,61.50
2019-04-30T21:50:51.993Z,61.60
2019-04-30T21:56:09.024Z,61.80
2019-04-30T22:01:26.043Z,61.80
2019-04-30T22:06:46.671Z,62.00
2019-04-30T22:12:04.236Z,62.10
2019-04-30T22:17:20.527Z,62.00
2019-04-30T22:22:39.093Z,62.00
2019-04-30T22:28:01.927Z,62.00
2019-04-30T22:33:19.384Z,62.10
2019-04-30T22:38:41.428Z,62.10
2019-04-30T22:44:01.394Z,62.20
2019-04-30T22:49:17.011Z,62.20
2019-04-30T22:54:33.162Z,62.20
2019-04-30T22:59:58.739Z,62.40
2019-04-30T23:05:16.742Z,62.30
2019-04-30T23:10:34.487Z,62.40
2019-04-30T23:15:58.541Z,62.60
2019-04-30T23:21:17.892Z,62.50
2019-04-30T23:26:34.035Z,62.50
2019-04-30T23:31:50.313Z,62.40
2019-04-30T23:37:06.041Z,62.50
2019-04-30T23:42:21.680Z,62.50
2019-04-30T23:47:45.410Z,62.50
2019-04-30T23:53:01.203Z,62.50
2019-04-30T23:58:17.291Z,62.50
